createdAt,value
2018-11-14T00:00:58.601Z,19.7
2018-11-14T00:02:00.236Z,19.6
2018-11-14T00:03:00.991Z,19.6
2018-11-14T00:04:02.036Z,19.7
2018-11-14T00:05:03.379Z,19.7
2018-11-14T00:06:04.998Z,19.7
2018-11-14T00:07:06.631Z,19.6
2018-11-14T00:08:08.248Z,19.6
2018-11-14T00:09:10.147Z,19.6
2018-11-14T00:10:12.075Z,19.6
2018-11-14T00:11:13.972Z,19.6
2018-11-14T00:12:15.870Z,19.6
2018-11-14T00:13:17.215Z,19.6
2018-11-14T00:14:18.832Z,19.6
2018-11-14T00:15:20.431Z,19.7
2018-11-14T00:16:21.753Z,19.6
2018-11-14T00:17:23.376Z,19.6
2018-11-14T00:18:24.722Z,19.6
2018-11-14T00:19:26.071Z,19.7
2018-11-14T00:20:27.540Z,19.6
2018-11-14T00:21:28.584Z,19.6
2018-11-14T00:22:29.928Z,19.6
2018-11-14T00:23:31.270Z,19.6
2018-11-14T00:24:33.165Z,19.6
2018-11-14T00:25:34.607Z,19.6
2018-11-14T00:26:35.687Z,19.7
2018-11-14T00:27:37.364Z,19.6
2018-11-14T00:28:38.983Z,19.6
2018-11-14T00:29:40.937Z,19.6
2018-11-14T00:30:43.505Z,19.6
2018-11-14T00:31:45.407Z,19.5
2018-11-14T00:32:47.022Z,19.5
2018-11-14T00:33:48.367Z,19.5
2018-11-14T00:34:49.996Z,19.5
2018-11-14T00:35:52.496Z,19.5
2018-11-14T00:36:54.412Z,19.5
2018-11-14T00:37:56.446Z,19.6
2018-11-14T00:38:57.766Z,19.5
2018-11-14T00:39:59.366Z,19.5
2018-11-14T00:41:01.265Z,19.5
2018-11-14T00:42:02.865Z,19.5
2018-11-14T00:43:04.185Z,19.5
2018-11-14T00:44:06.080Z,19.5
2018-11-14T00:45:07.677Z,19.4
2018-11-14T00:46:09.572Z,19.4
2018-11-14T00:47:11.195Z,19.4
2018-11-14T00:48:12.813Z,19.5
2018-11-14T00:49:13.857Z,19.5
2018-11-14T00:50:15.480Z,19.5
2018-11-14T00:51:17.072Z,19.5
2018-11-14T00:52:18.416Z,19.6
2018-11-14T00:53:20.312Z,19.4
2018-11-14T00:54:21.655Z,19.5
2018-11-14T00:55:22.998Z,19.4
2018-11-14T00:56:24.897Z,19.5
2018-11-14T00:57:26.792Z,19.4
2018-11-14T00:58:28.690Z,19.4
2018-11-14T00:59:29.768Z,19.5
2018-11-14T01:00:31.385Z,19.5
2018-11-14T01:01:32.798Z,19.4
2018-11-14T01:02:35.272Z,19.4
2018-11-14T01:03:38.497Z,19.4
2018-11-14T01:04:40.452Z,19.4
2018-11-14T01:05:42.067Z,19.4
2018-11-14T01:06:43.408Z,19.4
2018-11-14T01:07:45.307Z,19.4
2018-11-14T01:08:46.924Z,19.4
2018-11-14T01:09:48.546Z,19.4
2018-11-14T01:10:50.017Z,19.4
2018-11-14T01:11:51.634Z,19.5
2018-11-14T01:12:52.954Z,19.4
2018-11-14T01:13:54.650Z,19.4
2018-11-14T01:14:56.001Z,19.4
2018-11-14T01:15:57.896Z,19.4
2018-11-14T01:16:59.795Z,19.4
2018-11-14T01:18:01.415Z,19.4
2018-11-14T01:19:02.755Z,19.5
2018-11-14T01:20:04.373Z,19.4
2018-11-14T01:21:05.974Z,19.4
2018-11-14T01:22:07.872Z,19.4
2018-11-14T01:23:09.193Z,19.3
2018-11-14T01:24:10.794Z,19.4
2018-11-14T01:25:12.116Z,19.4
2018-11-14T01:26:14.014Z,19.4
2018-11-14T01:27:15.055Z,19.3
2018-11-14T01:28:16.654Z,19.4
2018-11-14T01:29:17.998Z,19.4
2018-11-14T01:30:19.593Z,19.5
2018-11-14T01:31:20.929Z,19.3
2018-11-14T01:32:22.548Z,19.4
2018-11-14T01:33:24.158Z,19.4
2018-11-14T01:34:26.059Z,19.4
2018-11-14T01:35:27.675Z,19.4
2018-11-14T01:36:28.721Z,19.4
2018-11-14T01:37:30.618Z,19.4
2018-11-14T01:38:32.265Z,19.4
2018-11-14T01:39:33.558Z,19.5
2018-11-14T01:40:35.457Z,19.4
2018-11-14T01:41:36.783Z,19.4
2018-11-14T01:42:38.680Z,19.4
2018-11-14T01:43:40.297Z,19.4
2018-11-14T01:44:41.619Z,19.4
2018-11-14T01:45:42.944Z,19.5
2018-11-14T01:46:44.545Z,19.5
2018-11-14T01:47:46.167Z,19.4
2018-11-14T01:48:47.210Z,19.4
2018-11-14T01:49:48.533Z,19.4
2018-11-14T01:50:50.150Z,19.4
2018-11-14T01:51:52.047Z,19.3
2018-11-14T01:52:53.942Z,19.4
2018-11-14T01:53:55.563Z,19.4
2018-11-14T01:54:57.183Z,19.4
2018-11-14T01:55:58.792Z,19.4
2018-11-14T01:57:00.690Z,19.4
2018-11-14T01:58:02.014Z,19.5
2018-11-14T01:59:03.335Z,19.4
2018-11-14T02:00:04.962Z,19.4
2018-11-14T02:01:06.002Z,19.3
2018-11-14T02:02:07.073Z,19.4
2018-11-14T02:03:08.689Z,19.3
2018-11-14T02:04:10.301Z,19.5
2018-11-14T02:05:11.639Z,19.4
2018-11-14T02:06:13.257Z,19.4
2018-11-14T02:07:14.601Z,19.4
2018-11-14T02:08:15.944Z,19.3
2018-11-14T02:09:17.292Z,19.5
2018-11-14T02:10:18.338Z,19.5
2018-11-14T02:11:19.937Z,19.4
2018-11-14T02:12:20.981Z,19.4
2018-11-14T02:13:22.605Z,19.4
2018-11-14T02:14:24.500Z,19.4
2018-11-14T02:15:25.842Z,19.5
2018-11-14T02:16:27.461Z,19.4
2018-11-14T02:17:28.807Z,19.5
2018-11-14T02:18:30.705Z,19.4
2018-11-14T02:19:32.326Z,19.5
2018-11-14T02:20:33.097Z,19.4
2018-11-14T02:21:34.442Z,19.5
2018-11-14T02:22:35.765Z,19.4
2018-11-14T02:23:37.366Z,19.4
2018-11-14T02:24:39.258Z,19.4
2018-11-14T02:25:40.602Z,19.5
2018-11-14T02:26:41.944Z,19.4
2018-11-14T02:27:43.284Z,19.3
2018-11-14T02:28:45.180Z,19.4
2018-11-14T02:29:46.508Z,19.4
2018-11-14T02:30:47.857Z,19.3
2018-11-14T02:31:49.753Z,19.4
2018-11-14T02:32:51.373Z,19.4
2018-11-14T02:33:53.003Z,19.5
2018-11-14T02:34:54.626Z,19.4
2018-11-14T02:35:55.945Z,19.4
2018-11-14T02:36:57.015Z,19.5
2018-11-14T02:37:58.914Z,19.4
2018-11-14T02:39:00.534Z,19.3
2018-11-14T02:40:02.154Z,19.4
2018-11-14T02:41:03.200Z,19.5
2018-11-14T02:42:04.933Z,19.4
2018-11-14T02:43:06.587Z,19.3
2018-11-14T02:44:08.484Z,19.5
2018-11-14T02:45:09.807Z,19.4
2018-11-14T02:46:11.716Z,19.3
2018-11-14T02:47:13.039Z,19.5
2018-11-14T02:48:14.083Z,19.5
2018-11-14T02:49:15.130Z,19.5
2018-11-14T02:50:16.476Z,19.3
2018-11-14T02:51:18.074Z,19.4
2018-11-14T02:52:19.740Z,19.3
2018-11-14T02:53:20.774Z,19.4
2018-11-14T02:54:22.674Z,19.4
2018-11-14T02:55:24.570Z,19.3
2018-11-14T02:56:26.191Z,19.4
2018-11-14T02:57:27.830Z,19.3
2018-11-14T02:58:29.443Z,19.4
2018-11-14T02:59:31.347Z,19.4
2018-11-14T03:00:32.950Z,19.4
2018-11-14T03:01:34.571Z,19.4
2018-11-14T03:02:35.893Z,19.3
2018-11-14T03:03:36.945Z,19.4
2018-11-14T03:04:38.560Z,19.4
2018-11-14T03:05:40.472Z,19.4
2018-11-14T03:06:42.089Z,19.4
2018-11-14T03:07:43.998Z,19.4
2018-11-14T03:08:45.617Z,19.4
2018-11-14T03:09:47.531Z,19.4
2018-11-14T03:10:49.139Z,19.4
2018-11-14T03:11:51.034Z,19.4
2018-11-14T03:12:52.397Z,19.4
2018-11-14T03:13:53.734Z,19.5
2018-11-14T03:14:55.645Z,19.3
2018-11-14T03:15:57.542Z,19.5
2018-11-14T03:16:58.595Z,19.3
2018-11-14T03:17:59.642Z,19.4
2018-11-14T03:19:01.264Z,19.3
2018-11-14T03:20:02.605Z,19.3
2018-11-14T03:21:03.651Z,19.3
2018-11-14T03:22:05.246Z,19.3
2018-11-14T03:23:06.870Z,19.3
2018-11-14T03:24:08.219Z,19.4
2018-11-14T03:26:11.744Z,19.2
2018-11-14T03:27:13.641Z,19.3
2018-11-14T03:28:14.992Z,19.4
2018-11-14T03:29:16.615Z,19.3
2018-11-14T03:30:18.515Z,19.3
2018-11-14T03:31:20.432Z,19.3
2018-11-14T03:32:22.069Z,19.3
2018-11-14T03:33:23.391Z,19.3
2018-11-14T03:34:25.021Z,19.2
2018-11-14T03:35:26.368Z,19.3
2018-11-14T03:36:27.706Z,19.3
2018-11-14T03:37:29.045Z,19.3
2018-11-14T03:38:30.370Z,19.2
2018-11-14T03:39:31.995Z,19.2
2018-11-14T03:40:33.341Z,19.3
2018-11-14T03:41:35.235Z,19.3
2018-11-14T03:42:36.559Z,19.3
2018-11-14T03:43:38.160Z,19.3
2018-11-14T03:44:39.783Z,19.3
2018-11-14T03:45:41.382Z,19.3
2018-11-14T03:46:43.004Z,19.4
2018-11-14T03:47:44.907Z,19.3
2018-11-14T03:48:46.810Z,19.3
2018-11-14T03:49:48.408Z,19.3
2018-11-14T03:50:49.729Z,19.3
2018-11-14T03:51:51.355Z,19.3
2018-11-14T03:52:53.253Z,19.3
2018-11-14T03:53:54.296Z,19.3
2018-11-14T03:54:55.619Z,19.3
2018-11-14T03:55:57.517Z,19.3
2018-11-14T03:56:59.136Z,19.2
2018-11-14T03:58:00.203Z,19.3
2018-11-14T03:59:01.825Z,19.3
2018-11-14T04:00:03.169Z,19.3
2018-11-14T04:01:04.210Z,19.3
2018-11-14T04:02:05.256Z,19.2
2018-11-14T04:03:06.582Z,19.2
2018-11-14T04:04:08.200Z,19.3
2018-11-14T04:05:10.097Z,19.3
2018-11-14T04:06:10.865Z,19.2
2018-11-14T04:07:11.931Z,19.2
2018-11-14T04:08:13.552Z,19.2
2018-11-14T04:09:15.536Z,19.2
2018-11-14T04:10:17.762Z,19.2
2018-11-14T04:11:19.664Z,19.2
2018-11-14T04:12:21.358Z,19.2
2018-11-14T04:13:23.101Z,19.2
2018-11-14T04:14:24.442Z,19.2
2018-11-14T04:15:25.796Z,19.1
2018-11-14T04:16:27.428Z,19.2
2018-11-14T04:17:29.028Z,19.3
2018-11-14T04:18:30.651Z,19.2
2018-11-14T04:19:32.559Z,19.3
2018-11-14T04:20:34.177Z,19.2
2018-11-14T04:21:35.796Z,19.2
2018-11-14T04:22:37.395Z,19.1
2018-11-14T04:23:39.296Z,19.2
2018-11-14T04:24:40.618Z,19.1
2018-11-14T04:25:42.242Z,19.1
2018-11-14T04:26:43.581Z,19.1
2018-11-14T04:27:44.627Z,19.1
2018-11-14T04:28:46.247Z,19.1
2018-11-14T04:29:47.293Z,19.2
2018-11-14T04:30:48.914Z,19.2
2018-11-14T04:31:50.812Z,19.3
2018-11-14T04:32:52.430Z,19.2
2018-11-14T04:33:54.050Z,19.2
2018-11-14T04:34:55.371Z,19.2
2018-11-14T04:35:56.993Z,19.2
2018-11-14T04:36:58.322Z,19.2
2018-11-14T04:37:59.940Z,19.2
2018-11-14T04:39:01.835Z,19.2
2018-11-14T04:40:03.455Z,19.2
2018-11-14T04:41:04.832Z,19.2
2018-11-14T04:42:06.478Z,19.3
2018-11-14T04:43:07.819Z,19.2
2018-11-14T04:44:09.722Z,19.2
2018-11-14T04:45:11.336Z,19.2
2018-11-14T04:46:12.937Z,19.2
2018-11-14T04:47:14.558Z,19.1
2018-11-14T04:48:16.293Z,19.2
2018-11-14T04:49:18.251Z,19.2
2018-11-14T04:50:20.145Z,19.1
2018-11-14T04:51:22.047Z,19.1
2018-11-14T04:52:23.670Z,19.2
2018-11-14T04:53:25.010Z,19.2
2018-11-14T04:54:26.907Z,19.1
2018-11-14T04:55:28.228Z,19.2
2018-11-14T04:56:29.851Z,19.2
2018-11-14T04:57:30.917Z,19.2
2018-11-14T04:58:32.510Z,19.2
2018-11-14T04:59:34.417Z,19.2
2018-11-14T05:00:35.769Z,19.2
2018-11-14T05:01:37.413Z,19.2
2018-11-14T05:02:39.101Z,19.3
2018-11-14T05:03:40.712Z,19.2
2018-11-14T05:04:42.331Z,19.2
2018-11-14T05:05:43.949Z,19.2
2018-11-14T05:06:45.569Z,19.2
2018-11-14T05:07:47.190Z,19.2
2018-11-14T05:08:48.538Z,19.2
2018-11-14T05:09:50.433Z,19.2
2018-11-14T05:10:51.753Z,19.2
2018-11-14T05:11:53.354Z,19.2
2018-11-14T05:12:55.043Z,19.2
2018-11-14T05:13:57.323Z,19.3
2018-11-14T05:14:58.944Z,19.3
2018-11-14T05:16:00.263Z,19.2
2018-11-14T05:17:01.860Z,19.3
2018-11-14T05:18:03.205Z,19.2
2018-11-14T05:19:04.546Z,19.3
2018-11-14T05:20:06.446Z,19.2
2018-11-14T05:21:07.833Z,19.3
2018-11-14T05:22:09.453Z,19.3
2018-11-14T05:23:11.364Z,19.3
2018-11-14T05:24:13.261Z,19.3
2018-11-14T05:25:15.158Z,19.3
2018-11-14T05:26:17.063Z,19.3
2018-11-14T05:27:18.383Z,19.3
2018-11-14T05:28:19.982Z,19.3
2018-11-14T05:29:21.308Z,19.3
2018-11-14T05:30:22.629Z,19.4
2018-11-14T05:31:24.534Z,19.4
2018-11-14T05:32:26.154Z,19.4
2018-11-14T05:33:27.470Z,19.4
2018-11-14T05:34:28.812Z,19.4
2018-11-14T05:35:30.157Z,19.4
2018-11-14T05:36:31.761Z,19.3
2018-11-14T05:37:33.380Z,19.4
2018-11-14T05:38:34.721Z,19.4
2018-11-14T05:39:36.384Z,19.4
2018-11-14T05:40:38.243Z,19.4
2018-11-14T05:41:39.842Z,19.4
2018-11-14T05:42:41.465Z,19.4
2018-11-14T05:43:42.506Z,19.4
2018-11-14T05:44:44.418Z,19.4
2018-11-14T05:45:46.314Z,19.4
2018-11-14T05:46:47.668Z,19.4
2018-11-14T05:47:48.994Z,19.5
2018-11-14T05:48:50.336Z,19.4
2018-11-14T05:49:51.956Z,19.4
2018-11-14T05:50:53.862Z,19.4
2018-11-14T05:51:55.759Z,19.4
2018-11-14T05:52:57.654Z,19.4
2018-11-14T05:53:59.558Z,19.4
2018-11-14T05:55:00.967Z,19.5
2018-11-14T05:56:02.530Z,19.4
2018-11-14T05:57:03.852Z,19.5
2018-11-14T05:58:05.450Z,19.4
2018-11-14T05:59:07.077Z,19.4
2018-11-14T06:00:08.420Z,19.4
2018-11-14T06:01:10.041Z,19.4
2018-11-14T06:02:11.713Z,19.4
2018-11-14T06:03:12.790Z,19.4
2018-11-14T06:04:14.430Z,19.5
2018-11-14T06:05:16.066Z,19.6
2018-11-14T06:06:17.728Z,19.5
2018-11-14T06:07:19.747Z,19.5
2018-11-14T06:08:21.952Z,19.5
2018-11-14T06:09:23.572Z,19.5
2018-11-14T06:10:24.623Z,19.5
2018-11-14T06:11:26.241Z,19.5
2018-11-14T06:12:27.606Z,19.5
2018-11-14T06:13:29.229Z,19.5
2018-11-14T06:14:30.300Z,19.4
2018-11-14T06:15:31.926Z,19.5
2018-11-14T06:16:33.248Z,19.4
2018-11-14T06:17:35.144Z,19.5
2018-11-14T06:18:36.765Z,19.5
2018-11-14T06:19:38.665Z,19.5
2018-11-14T06:20:40.285Z,19.5
2018-11-14T06:21:42.216Z,19.5
2018-11-14T06:22:43.260Z,19.5
2018-11-14T06:23:44.433Z,19.6
2018-11-14T06:24:45.096Z,19.7
2018-11-14T06:25:46.724Z,19.7
2018-11-14T06:26:48.829Z,19.5
2018-11-14T06:27:50.432Z,19.5
2018-11-14T06:28:51.475Z,19.6
2018-11-14T06:29:52.857Z,19.6
2018-11-14T06:30:54.664Z,19.5
2018-11-14T06:31:56.561Z,19.6
2018-11-14T06:32:58.176Z,19.5
2018-11-14T06:34:00.063Z,19.6
2018-11-14T06:35:01.691Z,19.5
2018-11-14T06:36:03.009Z,19.6
2018-11-14T06:37:04.075Z,19.7
2018-11-14T06:38:05.686Z,19.6
2018-11-14T06:39:06.996Z,19.6
2018-11-14T06:40:08.337Z,19.5
2018-11-14T06:41:09.969Z,19.6
2018-11-14T06:42:11.588Z,19.6
2018-11-14T06:43:12.909Z,19.6
2018-11-14T06:44:14.527Z,19.6
2018-11-14T06:45:16.163Z,19.6
2018-11-14T06:46:17.806Z,19.6
2018-11-14T06:47:19.434Z,19.7
2018-11-14T06:48:21.028Z,19.7
2018-11-14T06:49:22.658Z,19.6
2018-11-14T06:50:24.252Z,19.6
2018-11-14T06:51:25.871Z,19.6
2018-11-14T06:52:27.197Z,19.6
2018-11-14T06:53:28.242Z,19.7
2018-11-14T06:54:29.867Z,19.6
2018-11-14T06:55:31.495Z,19.6
2018-11-14T06:56:32.819Z,19.6
2018-11-14T06:57:34.720Z,19.7
2018-11-14T06:58:36.143Z,19.7
2018-11-14T06:59:37.934Z,19.7
2018-11-14T07:00:39.715Z,19.7
2018-11-14T07:01:41.037Z,19.7
2018-11-14T07:02:42.933Z,19.8
2018-11-14T07:03:44.562Z,19.7
2018-11-14T07:04:46.200Z,19.7
2018-11-14T07:05:47.808Z,19.7
2018-11-14T07:06:50.478Z,19.6
2018-11-14T07:07:51.802Z,19.6
2018-11-14T07:08:53.426Z,19.6
2018-11-14T07:09:55.050Z,19.7
2018-11-14T07:10:56.754Z,19.6
2018-11-14T07:11:58.961Z,19.7
2018-11-14T07:13:00.585Z,19.6
2018-11-14T07:14:01.933Z,19.6
2018-11-14T07:15:02.981Z,19.6
2018-11-14T07:16:04.302Z,19.6
2018-11-14T07:17:05.923Z,19.6
2018-11-14T07:18:07.377Z,19.6
2018-11-14T07:19:09.001Z,19.6
2018-11-14T07:20:10.601Z,19.6
2018-11-14T07:21:12.251Z,19.6
2018-11-14T07:22:13.572Z,19.6
2018-11-14T07:23:15.469Z,19.6
2018-11-14T07:24:16.811Z,19.6
2018-11-14T07:25:18.133Z,19.6
2018-11-14T07:26:19.771Z,19.5
2018-11-14T07:27:21.393Z,19.6
2018-11-14T07:28:23.004Z,19.6
2018-11-14T07:29:24.348Z,19.6
2018-11-14T07:30:25.697Z,19.5
2018-11-14T07:31:26.743Z,19.6
2018-11-14T07:32:28.342Z,19.6
2018-11-14T07:33:29.687Z,19.6
2018-11-14T07:34:31.033Z,19.5
2018-11-14T07:35:32.357Z,19.6
2018-11-14T07:36:33.678Z,19.6
2018-11-14T07:37:34.751Z,19.6
2018-11-14T07:38:36.736Z,19.6
2018-11-14T07:39:38.365Z,19.6
2018-11-14T07:40:39.711Z,19.6
2018-11-14T07:41:41.347Z,19.6
2018-11-14T07:42:43.248Z,19.6
2018-11-14T07:43:44.924Z,19.6
2018-11-14T07:44:46.543Z,19.6
2018-11-14T07:45:47.957Z,19.6
2018-11-14T07:46:49.296Z,19.6
2018-11-14T07:47:50.622Z,19.6
2018-11-14T07:48:51.719Z,19.6
2018-11-14T07:49:53.133Z,19.5
2018-11-14T07:50:54.488Z,19.6
2018-11-14T07:51:55.832Z,19.6
2018-11-14T07:52:57.155Z,19.6
2018-11-14T07:53:58.795Z,19.5
2018-11-14T07:55:00.715Z,19.6
2018-11-14T07:56:02.338Z,19.6
2018-11-14T07:57:04.235Z,19.6
2018-11-14T07:58:05.577Z,19.6
2018-11-14T07:59:06.346Z,19.6
2018-11-14T08:00:07.997Z,19.7
2018-11-14T08:01:09.347Z,19.6
2018-11-14T08:02:10.483Z,19.6
2018-11-14T08:03:12.883Z,19.7
2018-11-14T08:04:14.208Z,19.6
2018-11-14T08:05:16.103Z,19.7
2018-11-14T08:06:17.779Z,19.7
2018-11-14T08:07:19.998Z,19.6
2018-11-14T08:08:21.717Z,19.6
2018-11-14T08:09:23.677Z,19.6
2018-11-14T08:10:24.775Z,19.6
2018-11-14T08:11:25.965Z,19.6
2018-11-14T08:12:27.602Z,19.6
2018-11-14T08:13:28.971Z,19.6
2018-11-14T08:14:30.296Z,19.6
2018-11-14T08:15:31.924Z,19.6
2018-11-14T08:16:33.547Z,19.7
2018-11-14T08:17:34.886Z,19.6
2018-11-14T08:18:36.804Z,19.6
2018-11-14T08:19:38.545Z,19.6
2018-11-14T08:20:40.443Z,19.7
2018-11-14T08:21:42.339Z,19.6
2018-11-14T08:22:43.991Z,19.6
2018-11-14T08:23:45.879Z,19.6
2018-11-14T08:24:47.524Z,19.6
2018-11-14T08:25:48.595Z,19.7
2018-11-14T08:26:50.494Z,19.7
2018-11-14T08:27:52.443Z,19.8
2018-11-14T08:28:54.043Z,19.6
2018-11-14T08:29:55.643Z,19.7
2018-11-14T08:30:57.270Z,19.7
2018-11-14T08:31:58.593Z,19.7
2018-11-14T08:32:59.645Z,19.7
2018-11-14T08:34:00.972Z,19.7
2018-11-14T08:35:02.589Z,19.8
2018-11-14T08:36:04.490Z,19.8
2018-11-14T08:37:06.111Z,19.7
2018-11-14T08:38:07.711Z,19.7
2018-11-14T08:39:09.038Z,19.8
2018-11-14T08:40:11.210Z,19.7
2018-11-14T08:41:12.533Z,19.7
2018-11-14T08:42:14.151Z,19.8
2018-11-14T08:43:15.495Z,19.7
2018-11-14T08:44:17.154Z,19.7
2018-11-14T08:45:18.478Z,19.7
2018-11-14T08:46:19.823Z,19.7
2018-11-14T08:47:20.869Z,19.7
2018-11-14T08:48:22.494Z,19.8
2018-11-14T08:49:24.114Z,19.7
2018-11-14T08:50:25.563Z,19.7
2018-11-14T08:51:27.946Z,19.7
2018-11-14T08:52:29.409Z,19.7
2018-11-14T08:53:30.728Z,19.7
2018-11-14T08:54:32.629Z,19.7
2018-11-14T08:55:33.950Z,19.7
2018-11-14T08:56:35.579Z,19.7
2018-11-14T08:57:36.610Z,19.7
2018-11-14T08:58:37.954Z,19.7
2018-11-14T08:59:39.576Z,19.8
2018-11-14T09:00:40.627Z,19.8
2018-11-14T09:01:42.246Z,19.7
2018-11-14T09:02:44.142Z,19.8
2018-11-14T09:03:45.566Z,19.8
2018-11-14T09:04:47.488Z,19.8
2018-11-14T09:05:48.529Z,19.8
2018-11-14T09:06:50.426Z,19.8
2018-11-14T09:07:52.240Z,19.8
2018-11-14T09:08:54.171Z,19.7
2018-11-14T09:09:55.513Z,19.8
2018-11-14T09:10:57.196Z,19.7
2018-11-14T09:11:59.048Z,19.8
2018-11-14T09:13:00.467Z,19.7
2018-11-14T09:14:02.498Z,19.8
2018-11-14T09:15:03.912Z,19.8
2018-11-14T09:16:05.656Z,19.8
2018-11-14T09:17:07.293Z,19.8
2018-11-14T09:18:08.978Z,19.9
2018-11-14T09:19:11.211Z,19.7
2018-11-14T09:20:12.812Z,19.8
2018-11-14T09:21:14.437Z,19.8
2018-11-14T09:22:16.061Z,19.8
2018-11-14T09:23:17.687Z,19.8
2018-11-14T09:24:19.308Z,19.8
2018-11-14T09:25:20.950Z,19.8
2018-11-14T09:26:22.572Z,19.8
2018-11-14T09:27:24.207Z,19.8
2018-11-14T09:28:25.545Z,19.9
2018-11-14T09:29:27.176Z,19.9
2018-11-14T09:30:28.807Z,19.9
2018-11-14T09:31:30.430Z,19.8
2018-11-14T09:32:32.055Z,19.9
2018-11-14T09:33:33.679Z,19.9
2018-11-14T09:34:35.031Z,19.9
2018-11-14T09:35:36.452Z,19.9
2018-11-14T09:36:37.498Z,19.8
2018-11-14T09:37:39.123Z,19.7
2018-11-14T09:38:40.464Z,19.8
2018-11-14T09:39:41.516Z,19.8
2018-11-14T09:40:43.507Z,19.8
2018-11-14T09:41:45.179Z,19.8
2018-11-14T09:42:46.780Z,19.9
2018-11-14T09:43:48.206Z,19.7
2018-11-14T09:44:49.944Z,19.9
2018-11-14T09:45:50.971Z,19.9
2018-11-14T09:46:52.568Z,19.8
2018-11-14T09:47:54.188Z,19.8
2018-11-14T09:48:57.125Z,19.8
2018-11-14T09:49:59.059Z,19.7
2018-11-14T09:51:00.706Z,19.9
2018-11-14T09:52:02.328Z,19.9
2018-11-14T09:53:03.961Z,19.9
2018-11-14T09:54:05.475Z,19.9
2018-11-14T09:55:07.378Z,20
2018-11-14T09:56:09.309Z,19.9
2018-11-14T09:57:11.272Z,19.9
2018-11-14T09:58:12.802Z,20
2018-11-14T09:59:14.416Z,20
2018-11-14T10:00:16.184Z,20
2018-11-14T10:01:17.903Z,20
2018-11-14T10:02:20.273Z,20
2018-11-14T10:03:21.599Z,20
2018-11-14T10:04:23.044Z,20
2018-11-14T10:05:24.736Z,19.9
2018-11-14T10:06:26.852Z,20
2018-11-14T10:07:28.482Z,19.9
2018-11-14T10:08:29.841Z,19.9
2018-11-14T10:09:31.954Z,20
2018-11-14T10:10:33.576Z,20
2018-11-14T10:11:34.898Z,20
2018-11-14T10:12:36.528Z,20
2018-11-14T10:13:38.149Z,19.9
2018-11-14T10:14:39.497Z,20
2018-11-14T10:15:40.955Z,19.9
2018-11-14T10:16:42.547Z,19.9
2018-11-14T10:17:44.176Z,20
2018-11-14T10:18:45.837Z,20
2018-11-14T10:19:47.150Z,19.9
2018-11-14T10:20:48.753Z,19.9
2018-11-14T10:21:50.403Z,20
2018-11-14T10:22:51.832Z,20
2018-11-14T10:23:53.461Z,20
2018-11-14T10:24:55.469Z,20
2018-11-14T10:25:57.151Z,19.9
2018-11-14T10:26:58.495Z,19.9
2018-11-14T10:27:59.644Z,20
2018-11-14T10:29:01.015Z,20
2018-11-14T10:30:02.380Z,19.9
2018-11-14T10:31:03.730Z,20
2018-11-14T10:32:05.629Z,20.1
2018-11-14T10:33:07.535Z,20
2018-11-14T10:34:09.433Z,20
2018-11-14T10:35:10.791Z,20.1
2018-11-14T10:36:12.449Z,20
2018-11-14T10:37:14.350Z,20
2018-11-14T10:38:15.695Z,20
2018-11-14T10:39:17.594Z,20
2018-11-14T10:40:19.210Z,20
2018-11-14T10:41:20.848Z,20
2018-11-14T10:42:22.471Z,20
2018-11-14T10:43:24.100Z,20
2018-11-14T10:44:25.722Z,20
2018-11-14T10:45:27.042Z,20.1
2018-11-14T10:46:28.648Z,20.1
2018-11-14T10:47:30.247Z,20.1
2018-11-14T10:48:32.151Z,20.1
2018-11-14T10:49:33.474Z,20.1
2018-11-14T10:50:35.092Z,20.1
2018-11-14T10:51:36.783Z,20.2
2018-11-14T10:52:38.127Z,20.1
2018-11-14T10:53:39.748Z,20.2
2018-11-14T10:54:40.796Z,20.1
2018-11-14T10:55:42.415Z,20.1
2018-11-14T10:56:43.763Z,20.1
2018-11-14T10:57:45.384Z,20.2
2018-11-14T10:58:46.452Z,20.1
2018-11-14T10:59:48.348Z,20.1
2018-11-14T11:00:49.695Z,20.1
2018-11-14T11:01:51.597Z,20.1
2018-11-14T11:02:52.920Z,20.1
2018-11-14T11:03:54.546Z,20.2
2018-11-14T11:04:56.196Z,20.1
2018-11-14T11:05:57.522Z,20.1
2018-11-14T11:06:58.841Z,20.1
2018-11-14T11:08:00.540Z,20.1
2018-11-14T11:09:02.788Z,20.2
2018-11-14T11:10:04.412Z,20.2
2018-11-14T11:11:06.033Z,20.2
2018-11-14T11:12:07.932Z,20.2
2018-11-14T11:13:09.833Z,20.2
2018-11-14T11:14:11.462Z,20.2
2018-11-14T11:15:13.086Z,20.2
2018-11-14T11:16:14.799Z,20.2
2018-11-14T11:17:16.427Z,20.2
2018-11-14T11:18:18.061Z,20.2
2018-11-14T11:19:19.657Z,20.2
2018-11-14T11:20:21.280Z,20.2
2018-11-14T11:21:22.628Z,20.2
2018-11-14T11:22:24.020Z,20.2
2018-11-14T11:23:25.626Z,20.2
2018-11-14T11:24:27.556Z,20.2
2018-11-14T11:25:29.159Z,20.2
2018-11-14T11:26:30.228Z,20.3
2018-11-14T11:27:32.127Z,20.2
2018-11-14T11:28:33.751Z,20.2
2018-11-14T11:29:35.348Z,20.2
2018-11-14T11:30:37.254Z,20.1
2018-11-14T11:31:38.602Z,20.1
2018-11-14T11:32:40.223Z,20.1
2018-11-14T11:33:41.557Z,20.2
2018-11-14T11:34:43.180Z,20.1
2018-11-14T11:35:45.077Z,20.2
2018-11-14T11:36:46.679Z,20.2
2018-11-14T11:37:48.023Z,20.3
2018-11-14T11:38:49.348Z,20.3
2018-11-14T11:39:50.970Z,20.3
2018-11-14T11:40:52.871Z,20.2
2018-11-14T11:41:54.493Z,20.2
2018-11-14T11:42:56.394Z,20.2
2018-11-14T11:43:58.297Z,20.3
2018-11-14T11:44:59.622Z,20.2
2018-11-14T11:46:01.245Z,20.3
2018-11-14T11:47:02.295Z,20.3
2018-11-14T11:48:03.893Z,20.3
2018-11-14T11:49:05.522Z,20.3
2018-11-14T11:50:06.566Z,20.3
2018-11-14T11:51:08.277Z,20.3
2018-11-14T11:52:09.918Z,20.3
2018-11-14T11:53:11.597Z,20.2
2018-11-14T11:54:12.916Z,20.3
2018-11-14T11:55:14.538Z,20.3
2018-11-14T11:56:16.439Z,20.3
2018-11-14T11:57:18.342Z,20.3
2018-11-14T11:58:20.048Z,20.3
2018-11-14T11:59:21.694Z,20.3
2018-11-14T12:00:23.425Z,20.3
2018-11-14T12:01:25.244Z,20.4
2018-11-14T12:02:27.143Z,20.4
2018-11-14T12:03:28.766Z,20.4
2018-11-14T12:04:30.388Z,20.4
2018-11-14T12:05:31.453Z,20.4
2018-11-14T12:06:33.213Z,20.4
2018-11-14T12:07:35.360Z,20.4
2018-11-14T12:08:36.988Z,20.4
2018-11-14T12:09:38.608Z,20.4
2018-11-14T12:10:40.021Z,20.4
2018-11-14T12:11:41.833Z,20.5
2018-11-14T12:12:43.784Z,20.5
2018-11-14T12:13:45.255Z,20.5
2018-11-14T12:14:47.152Z,20.5
2018-11-14T12:15:48.775Z,20.5
2018-11-14T12:16:50.400Z,20.5
2018-11-14T12:17:52.193Z,20.6
2018-11-14T12:18:54.525Z,20.4
2018-11-14T12:19:56.566Z,20.5
2018-11-14T12:20:58.199Z,20.5
2018-11-14T12:21:59.248Z,20.5
2018-11-14T12:23:00.590Z,20.4
2018-11-14T12:24:02.213Z,20.5
2018-11-14T12:25:04.126Z,20.6
2018-11-14T12:26:05.726Z,20.6
2018-11-14T12:27:07.189Z,20.4
2018-11-14T12:28:08.991Z,20.5
2018-11-14T12:29:10.910Z,20.5
2018-11-14T12:30:12.666Z,20.5
2018-11-14T12:31:15.388Z,20.5
2018-11-14T12:32:17.565Z,20.6
2018-11-14T12:33:18.610Z,20.4
2018-11-14T12:34:19.658Z,20.5
2018-11-14T12:35:21.087Z,20.4
2018-11-14T12:36:23.137Z,20.6
2018-11-14T12:37:25.033Z,20.6
2018-11-14T12:38:26.388Z,20.6
2018-11-14T12:39:27.705Z,20.6
2018-11-14T12:40:29.326Z,20.6
2018-11-14T12:41:30.672Z,20.6
2018-11-14T12:42:32.020Z,20.6
2018-11-14T12:43:33.650Z,20.6
2018-11-14T12:44:35.573Z,20.6
2018-11-14T12:45:37.686Z,20.4
2018-11-14T12:46:39.315Z,20.5
2018-11-14T12:47:41.209Z,20.5
2018-11-14T12:48:42.809Z,20.4
2018-11-14T12:49:44.708Z,20.4
2018-11-14T12:50:45.757Z,20.6
2018-11-14T12:51:47.656Z,20.6
2018-11-14T12:52:49.670Z,20.5
2018-11-14T12:53:52.186Z,20.5
2018-11-14T12:54:53.807Z,20.5
2018-11-14T12:55:55.431Z,20.6
2018-11-14T12:56:57.064Z,20.4
2018-11-14T12:57:58.386Z,20.4
2018-11-14T12:58:59.431Z,20.4
2018-11-14T13:00:01.120Z,20.4
2018-11-14T13:01:02.630Z,20.4
2018-11-14T13:02:03.975Z,20.3
2018-11-14T13:03:05.583Z,20.4
2018-11-14T13:04:06.646Z,20.5
2018-11-14T13:05:08.254Z,20.4
2018-11-14T13:06:09.873Z,20.5
2018-11-14T13:07:11.497Z,20.5
2018-11-14T13:08:13.106Z,20.6
2018-11-14T13:09:14.732Z,20.5
2018-11-14T13:10:16.362Z,20.6
2018-11-14T13:11:18.263Z,20.6
2018-11-14T13:12:20.162Z,20.5
2018-11-14T13:13:21.206Z,20.6
2018-11-14T13:14:23.107Z,20.4
2018-11-14T13:15:24.430Z,20.5
2018-11-14T13:16:25.483Z,20.5
2018-11-14T13:17:26.803Z,20.5
2018-11-14T13:18:28.413Z,20.5
2018-11-14T13:19:30.313Z,20.6
2018-11-14T13:20:31.656Z,20.4
2018-11-14T13:21:33.316Z,20.4
2018-11-14T13:22:35.224Z,20.4
2018-11-14T13:23:36.852Z,20.6
2018-11-14T13:24:38.470Z,20.5
2018-11-14T13:25:40.071Z,20.4
2018-11-14T13:26:41.396Z,20.6
2018-11-14T13:27:42.735Z,20.5
2018-11-14T13:28:43.817Z,20.6
2018-11-14T13:29:44.541Z,20.4
2018-11-14T13:30:46.160Z,20.6
2018-11-14T13:31:47.214Z,20.5
2018-11-14T13:32:48.267Z,20.5
2018-11-14T13:33:49.885Z,20.4
2018-11-14T13:34:51.231Z,20.4
2018-11-14T13:35:52.274Z,20.4
2018-11-14T13:36:53.899Z,20.4
2018-11-14T13:37:55.245Z,20.5
2018-11-14T13:38:57.147Z,20.5
2018-11-14T13:39:58.485Z,20.5
2018-11-14T13:40:59.532Z,20.4
2018-11-14T13:42:00.309Z,20.5
2018-11-14T13:43:01.682Z,20.5